To NAV CANADA Home Page Login to a new session Search on AWWS site Feedback and Comments Disclaimer Vers la page française équivalente Tips FAQ What's new on the site To the Forecasts and Observations / NOTAM section To "File a Flight Plan" website Publications and other links Update of the User's profile FIC Telephone Numbers My Weather Data Folder Route Weather Data Regional Weather Data Local Weather Data To the Forecasts and Observations / NOTAM section
Request Generated 05/27/2015 at 01:22:00 UTC . Weather information available at that time is displayed.

METAR/TAF

NATASHQUAN/QC    (show WxCam)

SPECI CYNA 270116Z AUTO 08005KT 6SM -RA BR SCT004 BKN020 OVC027 08/08
A2990 RMK SLP124=
SPECI CYNA 270109Z AUTO 09004KT 4SM -RA BR SCT004 BKN019 OVC026 08/08
A2989 RMK SLP123=
METAR CYNA 270100Z AUTO 08005KT 4SM BR BKN019 OVC026 08/07 A2990 RMK
SLP124=
SPECI CYNA 270058Z AUTO 07005KT 4SM BR BKN019 OVC026 08/07 A2989 RMK
SLP123=
SPECI CYNA 270051Z AUTO 06006KT 5SM -RA BR BKN017 OVC024 08/07 A2989
RMK SLP123=
SPECI CYNA 270046Z AUTO 07007KT 6SM -RA BR BKN017 OVC024 08/07 A2989
RMK SLP122=
SPECI CYNA 270017Z AUTO 07007KT 5SM -RA BR SCT017 BKN024 OVC034 08/07
A2988 RMK SLP120=
METAR CYNA 270000Z AUTO 06008KT 5SM -RA BR SCT017 OVC036 08/07 A2988
RMK PCPN 1.0MM PAST HR SLP119=
SPECI CYNA 262354Z AUTO 06006KT 3SM -RA BR FEW004 SCT019 OVC036 08/07
A2989 RMK SLP121=
SPECI CYNA 262342Z AUTO 06006KT 2 1/4SM -RA BR SCT004 OVC034 08/07
A2988 RMK SLP120=
METAR CYNA 262300Z AUTO 09006KT 1 3/4SM -RA BR BKN004 OVC007 08/07
A2989 RMK SLP122=

TAF CYNA 261940Z 2620/2708 09008KT 11/2SM -RA BR OVC004 TEMPO
2620/2702 6SM -RA BR SCT004 OVC012 PROB30 2620/2702 1/2SM FG
VV002
FM270200 04006KT 6SM BR OVC010 TEMPO 2702/2708 2SM -RA -DZ BR
OVC004
RMK FCST BASED ON AUTO OBS. NXT FCST BY 270200Z=
Your time UTC time
Weather data provided by Environment Canada and NAV CANADA